createdAt,value
2023-03-15T00:00:06.386Z,947.44
2023-03-15T00:01:08.369Z,947.41
2023-03-15T00:02:10.437Z,947.48
2023-03-15T00:03:12.417Z,947.5
2023-03-15T00:04:14.508Z,947.5
2023-03-15T00:05:16.361Z,947.54
2023-03-15T00:06:18.417Z,947.56
2023-03-15T00:07:21.362Z,947.53
2023-03-15T00:08:23.388Z,947.51
2023-03-15T00:09:25.391Z,947.52
2023-03-15T00:10:28.396Z,947.49
2023-03-15T00:11:31.367Z,947.53
2023-03-15T00:12:34.435Z,947.49
2023-03-15T00:13:36.365Z,947.53
2023-03-15T00:14:38.367Z,947.51
2023-03-15T00:16:17.977Z,947.48
2023-03-15T00:17:17.661Z,947.49
2023-03-15T00:18:17.670Z,947.49
2023-03-15T00:19:17.671Z,947.47
2023-03-15T00:20:17.670Z,947.48
2023-03-15T00:21:17.698Z,947.48
2023-03-15T00:22:17.691Z,947.51
2023-03-15T00:23:17.703Z,947.5
2023-03-15T00:24:17.665Z,947.52
2023-03-15T00:25:17.682Z,947.52
2023-03-15T00:26:17.698Z,947.55
2023-03-15T00:27:17.719Z,947.6
2023-03-15T00:28:17.753Z,947.6
2023-03-15T00:29:17.696Z,947.6
2023-03-15T00:30:17.670Z,947.66
2023-03-15T00:31:17.764Z,947.7
2023-03-15T00:32:36.336Z,947.67
2023-03-15T00:33:37.894Z,947.72
2023-03-15T00:34:39.909Z,947.72
2023-03-15T00:35:41.931Z,947.7
2023-03-15T00:36:43.872Z,947.66
2023-03-15T00:37:45.918Z,947.67
2023-03-15T00:39:02.357Z,947.67
2023-03-15T00:39:49.887Z,947.66
2023-03-15T00:40:51.875Z,947.64
2023-03-15T00:41:53.878Z,947.66
2023-03-15T00:42:55.874Z,947.66
2023-03-15T00:43:57.912Z,947.66
2023-03-15T00:44:59.887Z,947.68
2023-03-15T00:46:01.921Z,947.63
2023-03-15T00:47:03.917Z,947.61
2023-03-15T00:48:05.883Z,947.62
2023-03-15T00:49:07.881Z,947.62
2023-03-15T00:50:09.929Z,947.62
2023-03-15T00:51:11.949Z,947.66
2023-03-15T00:52:13.891Z,947.65
2023-03-15T00:53:15.927Z,947.67
2023-03-15T00:54:18.022Z,947.69
2023-03-15T00:55:19.885Z,947.71
2023-03-15T00:56:21.904Z,947.68
2023-03-15T00:57:23.886Z,947.68
2023-03-15T00:58:27.563Z,947.66
2023-03-15T00:59:27.892Z,947.72
2023-03-15T01:00:29.888Z,947.75
2023-03-15T01:01:31.970Z,947.75
2023-03-15T01:02:33.928Z,947.76
2023-03-15T01:03:36.973Z,947.76
2023-03-15T01:04:37.888Z,947.75
2023-03-15T01:06:41.893Z,947.77
2023-03-15T01:07:43.888Z,947.77
2023-03-15T01:08:45.936Z,947.78
2023-03-15T01:09:48.563Z,947.77
2023-03-15T01:10:49.981Z,947.78
2023-03-15T01:11:51.899Z,947.78
2023-03-15T01:12:54.890Z,947.78
2023-03-15T01:13:56.915Z,947.75
2023-03-15T01:14:58.899Z,947.73
2023-03-15T01:16:01.026Z,947.74
2023-03-15T01:17:02.900Z,947.72
2023-03-15T01:18:04.924Z,947.74
2023-03-15T01:19:06.895Z,947.79
2023-03-15T01:20:08.908Z,947.78
2023-03-15T01:21:10.940Z,947.78
2023-03-15T01:22:12.906Z,947.79
2023-03-15T01:23:14.906Z,947.8
2023-03-15T01:24:16.912Z,947.81
2023-03-15T01:25:18.907Z,947.81
2023-03-15T01:26:20.940Z,947.82
2023-03-15T01:27:22.927Z,947.85
2023-03-15T01:28:24.913Z,947.86
2023-03-15T01:29:26.901Z,947.86
2023-03-15T01:30:28.919Z,947.89
2023-03-15T01:31:30.952Z,947.88
2023-03-15T01:32:32.928Z,947.89
2023-03-15T01:33:35.968Z,947.88
2023-03-15T01:34:38.948Z,947.92
2023-03-15T01:35:40.931Z,947.97
2023-03-15T01:36:42.949Z,947.97
2023-03-15T01:37:44.911Z,947.96
2023-03-15T01:38:46.921Z,948
2023-03-15T01:39:48.916Z,948.01
2023-03-15T01:40:50.926Z,948.02
2023-03-15T01:41:53.013Z,948.04
2023-03-15T01:42:54.972Z,948.07
2023-03-15T01:43:56.924Z,948.12
2023-03-15T01:44:58.923Z,948.17
2023-03-15T01:46:00.938Z,948.16
2023-03-15T01:47:03.038Z,948.17
2023-03-15T01:48:04.933Z,948.18
2023-03-15T01:49:06.961Z,948.18
2023-03-15T01:50:08.939Z,948.19
2023-03-15T01:51:10.924Z,948.2
2023-03-15T01:52:13.935Z,948.15
2023-03-15T01:53:15.929Z,948.18
2023-03-15T01:54:18.088Z,948.19
2023-03-15T01:55:21.938Z,948.21
2023-03-15T01:56:23.937Z,948.19
2023-03-15T01:57:25.988Z,948.21
2023-03-15T01:58:27.962Z,948.26
2023-03-15T01:59:29.941Z,948.26
2023-03-15T02:00:32.053Z,948.29
2023-03-15T02:01:33.968Z,948.27
2023-03-15T02:02:35.995Z,948.32
2023-03-15T02:03:38.937Z,948.29
2023-03-15T02:04:40.937Z,948.31
2023-03-15T02:05:42.931Z,948.34
2023-03-15T02:07:17.785Z,948.31
2023-03-15T02:08:17.776Z,948.4
2023-03-15T02:09:17.800Z,948.42
2023-03-15T02:10:17.801Z,948.43
2023-03-15T02:11:17.750Z,948.42
2023-03-15T02:12:17.769Z,948.41
2023-03-15T02:13:17.840Z,948.38
2023-03-15T02:14:17.786Z,948.33
2023-03-15T02:15:17.837Z,948.34
2023-03-15T02:16:17.815Z,948.38
2023-03-15T02:17:17.746Z,948.38
2023-03-15T02:18:17.755Z,948.38
2023-03-15T02:19:17.763Z,948.4
2023-03-15T02:20:17.750Z,948.44
2023-03-15T02:21:17.754Z,948.49
2023-03-15T02:22:18.905Z,948.49
2023-03-15T02:23:20.931Z,948.51
2023-03-15T02:24:22.886Z,948.5
2023-03-15T02:25:24.893Z,948.54
2023-03-15T02:26:26.916Z,948.52
2023-03-15T02:27:28.931Z,948.57
2023-03-15T02:28:30.892Z,948.56
2023-03-15T02:29:32.949Z,948.58
2023-03-15T02:30:35.899Z,948.56
2023-03-15T02:31:38.938Z,948.61
2023-03-15T02:32:40.938Z,948.61
2023-03-15T02:33:42.950Z,948.62
2023-03-15T02:34:44.924Z,948.64
2023-03-15T02:35:46.964Z,948.63
2023-03-15T02:36:48.921Z,948.63
2023-03-15T02:37:50.891Z,948.64
2023-03-15T02:38:52.940Z,948.64
2023-03-15T02:39:55.899Z,948.65
2023-03-15T02:40:57.929Z,948.69
2023-03-15T02:41:59.894Z,948.66
2023-03-15T02:43:01.893Z,948.67
2023-03-15T02:44:03.972Z,948.65
2023-03-15T02:45:05.896Z,948.7
2023-03-15T02:46:07.972Z,948.7
2023-03-15T02:47:09.921Z,948.67
2023-03-15T02:48:11.910Z,948.72
2023-03-15T02:49:13.966Z,948.69
2023-03-15T02:50:15.927Z,948.71
2023-03-15T02:51:18.118Z,948.71
2023-03-15T02:52:21.915Z,948.7
2023-03-15T02:53:23.900Z,948.69
2023-03-15T02:54:25.905Z,948.7
2023-03-15T02:55:27.920Z,948.74
2023-03-15T02:56:29.981Z,948.73
2023-03-15T02:57:32.912Z,948.7
2023-03-15T02:58:35.921Z,948.7
2023-03-15T02:59:38.946Z,948.75
2023-03-15T03:00:40.907Z,948.73
2023-03-15T03:01:42.893Z,948.72
2023-03-15T03:02:44.983Z,948.77
2023-03-15T03:03:46.920Z,948.81
2023-03-15T03:04:48.973Z,948.79
2023-03-15T03:05:50.920Z,948.84
2023-03-15T03:06:52.916Z,948.87
2023-03-15T03:07:54.916Z,948.92
2023-03-15T03:08:56.967Z,948.97
2023-03-15T03:09:58.932Z,948.98
2023-03-15T03:11:00.921Z,948.99
2023-03-15T03:12:02.917Z,948.97
2023-03-15T03:13:04.940Z,949.01
2023-03-15T03:14:06.928Z,949.01
2023-03-15T03:15:08.922Z,949.03
2023-03-15T03:16:10.979Z,949.04
2023-03-15T03:17:12.921Z,949.11
2023-03-15T03:18:14.967Z,949.08
2023-03-15T03:19:17.828Z,949.1
2023-03-15T03:20:18.924Z,949.12
2023-03-15T03:21:20.919Z,949.12
2023-03-15T03:22:22.928Z,949.14
2023-03-15T03:23:24.955Z,949.19
2023-03-15T03:24:26.937Z,949.21
2023-03-15T03:25:28.914Z,949.25
2023-03-15T03:26:30.919Z,949.26
2023-03-15T03:27:32.922Z,949.23
2023-03-15T03:28:35.954Z,949.25
2023-03-15T03:29:38.932Z,949.28
2023-03-15T03:30:41.016Z,949.34
2023-03-15T03:31:42.924Z,949.33
2023-03-15T03:32:44.957Z,949.37
2023-03-15T03:33:46.936Z,949.4
2023-03-15T03:34:48.924Z,949.45
2023-03-15T03:35:50.995Z,949.44
2023-03-15T03:36:52.928Z,949.44
2023-03-15T03:37:54.936Z,949.47
2023-03-15T03:38:56.926Z,949.45
2023-03-15T03:39:58.969Z,949.47
2023-03-15T03:41:00.951Z,949.48
2023-03-15T03:42:02.933Z,949.52
2023-03-15T03:43:04.925Z,949.46
2023-03-15T03:44:06.935Z,949.54
2023-03-15T03:45:08.941Z,949.54
2023-03-15T03:46:11.047Z,949.62
2023-03-15T03:47:12.934Z,949.62
2023-03-15T03:48:14.946Z,949.65
2023-03-15T03:49:16.931Z,949.68
2023-03-15T03:50:18.933Z,949.68
2023-03-15T03:51:20.972Z,949.69
2023-03-15T03:52:23.932Z,949.73
2023-03-15T03:53:25.945Z,949.7
2023-03-15T03:54:27.944Z,949.77
2023-03-15T03:55:29.933Z,949.81
2023-03-15T03:56:31.956Z,949.8
2023-03-15T03:57:33.935Z,949.83
2023-03-15T03:58:36.002Z,949.87
2023-03-15T03:59:39.937Z,949.93
2023-03-15T04:00:42.936Z,949.95
2023-03-15T04:01:45.938Z,949.98
2023-03-15T04:02:47.953Z,950.01
2023-03-15T04:03:49.976Z,950.07
2023-03-15T04:04:51.977Z,950.07
2023-03-15T04:05:54.936Z,950.09
2023-03-15T04:06:56.970Z,950.17
2023-03-15T04:07:58.944Z,950.18
2023-03-15T04:09:00.984Z,950.22
2023-03-15T04:10:02.972Z,950.21
2023-03-15T04:11:04.968Z,950.25
2023-03-15T04:12:06.977Z,950.22
2023-03-15T04:13:08.950Z,950.21
2023-03-15T04:14:10.953Z,950.2
2023-03-15T04:15:12.990Z,950.22
2023-03-15T04:16:15.002Z,950.22
2023-03-15T04:17:16.944Z,950.23
2023-03-15T04:18:18.951Z,950.26
2023-03-15T04:19:20.949Z,950.3
2023-03-15T04:20:22.984Z,950.26
2023-03-15T04:21:26.012Z,950.32
2023-03-15T04:22:27.949Z,950.37
2023-03-15T04:23:29.950Z,950.37
2023-03-15T04:24:32.945Z,950.34
2023-03-15T04:25:36.020Z,950.39
2023-03-15T04:26:38.999Z,950.39
2023-03-15T04:27:40.951Z,950.42
2023-03-15T04:28:42.965Z,950.44
2023-03-15T04:29:44.993Z,950.4
2023-03-15T04:30:46.988Z,950.46
2023-03-15T04:31:48.963Z,950.49
2023-03-15T04:32:51.111Z,950.46
2023-03-15T04:33:52.970Z,950.47
2023-03-15T04:34:56.030Z,950.45
2023-03-15T04:35:58.071Z,950.51
2023-03-15T04:36:59.971Z,950.47
2023-03-15T04:38:01.997Z,950.47
2023-03-15T04:39:03.975Z,950.52
2023-03-15T04:40:06.000Z,950.52
2023-03-15T04:41:07.970Z,950.52
2023-03-15T04:42:10.025Z,950.55
2023-03-15T04:43:11.966Z,950.59
2023-03-15T04:44:14.018Z,950.61
2023-03-15T04:45:15.972Z,950.59
2023-03-15T04:46:18.235Z,950.63
2023-03-15T04:47:22.013Z,950.61
2023-03-15T04:48:23.981Z,950.66
2023-03-15T04:49:26.016Z,950.67
2023-03-15T04:50:27.975Z,950.64
2023-03-15T04:51:29.974Z,950.66
2023-03-15T04:52:32.009Z,950.7
2023-03-15T04:53:33.980Z,950.7
2023-03-15T04:54:36.019Z,950.72
2023-03-15T04:55:39.987Z,950.72
2023-03-15T04:56:41.992Z,950.69
2023-03-15T04:57:44.024Z,950.68
2023-03-15T04:58:46.076Z,950.7
2023-03-15T04:59:48.042Z,950.69
2023-03-15T05:00:50.082Z,950.73
2023-03-15T05:01:52.034Z,950.77
2023-03-15T05:02:54.030Z,950.78
2023-03-15T05:03:56.055Z,950.82
2023-03-15T05:04:57.994Z,950.8
2023-03-15T05:05:59.985Z,950.82
2023-03-15T05:07:17.852Z,950.88
2023-03-15T05:08:17.867Z,950.88
2023-03-15T05:09:17.930Z,950.94
2023-03-15T05:10:17.895Z,950.91
2023-03-15T05:12:39.423Z,950.93
2023-03-15T05:13:17.873Z,950.94
2023-03-15T05:14:17.909Z,950.96
2023-03-15T05:15:18.275Z,951
2023-03-15T05:16:22.073Z,950.98
2023-03-15T05:17:23.987Z,951
2023-03-15T05:18:26.057Z,950.99
2023-03-15T05:19:27.999Z,950.97
2023-03-15T05:20:29.997Z,950.95
2023-03-15T05:21:32.003Z,950.96
2023-03-15T05:22:33.996Z,950.97
2023-03-15T05:23:36.212Z,950.97
2023-03-15T05:24:38.008Z,951.02
2023-03-15T05:25:40.024Z,951.02
2023-03-15T05:26:42.001Z,951.03
2023-03-15T05:27:44.014Z,951.03
2023-03-15T05:28:46.065Z,951.1
2023-03-15T05:29:48.086Z,951.14
2023-03-15T05:30:50.009Z,951.17
2023-03-15T05:31:52.059Z,951.19
2023-03-15T05:32:54.052Z,951.19
2023-03-15T05:33:56.014Z,951.22
2023-03-15T05:34:58.050Z,951.23
2023-03-15T05:36:00.071Z,951.23
2023-03-15T05:37:01.995Z,951.27
2023-03-15T05:38:04.026Z,951.28
2023-03-15T05:39:06.009Z,951.29
2023-03-15T05:40:08.081Z,951.29
2023-03-15T05:41:10.009Z,951.33
2023-03-15T05:42:12.016Z,951.31
2023-03-15T05:43:14.018Z,951.34
2023-03-15T05:44:16.012Z,951.35
2023-03-15T05:45:18.216Z,951.38
2023-03-15T05:46:20.055Z,951.42
2023-03-15T05:47:22.017Z,951.4
2023-03-15T05:48:24.041Z,951.43
2023-03-15T05:49:26.009Z,951.43
2023-03-15T05:50:28.022Z,951.44
2023-03-15T05:51:30.008Z,951.41
2023-03-15T05:52:32.008Z,951.44
2023-03-15T05:53:34.060Z,951.46
2023-03-15T05:54:38.022Z,951.52
2023-03-15T05:55:40.051Z,951.53
2023-03-15T05:56:42.017Z,951.55
2023-03-15T05:57:44.010Z,951.53
2023-03-15T05:58:46.059Z,951.58
2023-03-15T05:59:48.034Z,951.56
2023-03-15T06:01:52.213Z,951.62
2023-03-15T06:02:54.019Z,951.63
2023-03-15T06:03:56.083Z,951.66
2023-03-15T06:04:58.018Z,951.7
2023-03-15T06:06:00.034Z,951.71
2023-03-15T06:07:02.049Z,951.75
2023-03-15T06:08:04.097Z,951.74
2023-03-15T06:09:06.055Z,951.74
2023-03-15T06:10:08.028Z,951.75
2023-03-15T06:13:32.546Z,951.85
2023-03-15T06:14:32.614Z,951.87
2023-03-15T06:15:24.705Z,951.84
2023-03-15T06:16:26.775Z,951.83
2023-03-15T06:17:28.759Z,951.83
2023-03-15T06:18:30.700Z,951.91
2023-03-15T06:20:17.966Z,951.95
2023-03-15T06:21:38.229Z,951.95
2023-03-15T06:26:17.920Z,951.93
2023-03-15T06:27:17.900Z,951.94
2023-03-15T06:28:32.547Z,951.9
2023-03-15T06:29:17.899Z,951.92
2023-03-15T06:31:06.966Z,951.94
2023-03-15T06:32:08.948Z,951.98
2023-03-15T06:33:10.990Z,951.98
2023-03-15T06:34:12.984Z,951.99
2023-03-15T06:36:16.947Z,952.04
2023-03-15T06:37:29.041Z,952.07
2023-03-15T06:38:20.930Z,952.06
2023-03-15T06:39:22.977Z,952.11
2023-03-15T06:41:26.959Z,952.15
2023-03-15T06:42:28.953Z,952.16
2023-03-15T06:43:30.943Z,952.15
2023-03-15T06:44:32.950Z,952.16
2023-03-15T06:45:35.997Z,952.13
2023-03-15T06:46:38.986Z,952.13
2023-03-15T06:47:40.946Z,952.16
2023-03-15T06:48:42.952Z,952.14
2023-03-15T06:52:02.577Z,952.13
2023-03-15T06:52:50.952Z,952.07
2023-03-15T06:53:52.949Z,952.15
2023-03-15T06:54:54.963Z,952.14
2023-03-15T06:55:56.972Z,952.15
2023-03-15T06:58:00.990Z,952.15
2023-03-15T06:59:02.957Z,952.12
2023-03-15T07:00:05.961Z,952.17
2023-03-15T07:01:08.069Z,952.18
2023-03-15T07:02:09.953Z,952.12
2023-03-15T07:03:11.962Z,952.17
2023-03-15T07:04:14.955Z,952.21
2023-03-15T07:05:17.011Z,952.21
2023-03-15T07:06:18.986Z,952.21
2023-03-15T07:08:23.671Z,952.19
2023-03-15T07:09:25.603Z,952.2
2023-03-15T07:10:27.601Z,952.19
2023-03-15T07:12:31.637Z,952.22
2023-03-15T07:13:33.601Z,952.16
2023-03-15T07:14:36.629Z,952.21
2023-03-15T07:16:18.074Z,952.24
2023-03-15T07:17:43.637Z,952.26
2023-03-15T07:18:45.623Z,952.31
2023-03-15T07:20:50.610Z,952.33
2023-03-15T07:22:54.620Z,952.36
2023-03-15T07:23:56.634Z,952.38
2023-03-15T07:24:58.634Z,952.39
2023-03-15T07:26:00.612Z,952.42
2023-03-15T07:29:07.145Z,952.47
2023-03-15T07:30:09.196Z,952.5
2023-03-15T07:31:12.201Z,952.53
2023-03-15T07:32:14.232Z,952.52
2023-03-15T07:33:16.247Z,952.52
2023-03-15T07:34:18.269Z,952.58
2023-03-15T07:35:35.865Z,952.49
2023-03-15T07:36:37.819Z,952.55
2023-03-15T07:37:44.140Z,952.58
2023-03-15T07:38:43.229Z,952.58
2023-03-15T07:39:43.861Z,952.57
2023-03-15T07:40:45.817Z,952.6
2023-03-15T07:41:47.817Z,952.65
2023-03-15T07:42:49.840Z,952.63
2023-03-15T07:43:52.870Z,952.68
2023-03-15T07:44:54.856Z,952.72
2023-03-15T07:45:56.825Z,952.69
2023-03-15T07:46:59.031Z,952.77
2023-03-15T07:48:00.840Z,952.72
2023-03-15T07:49:02.871Z,952.73
2023-03-15T07:50:05.837Z,952.72
2023-03-15T07:51:07.817Z,952.74
2023-03-15T07:52:10.825Z,952.78
2023-03-15T07:53:12.835Z,952.78
2023-03-15T07:54:14.822Z,952.76
2023-03-15T07:55:16.839Z,952.77
2023-03-15T07:56:19.807Z,952.79
2023-03-15T07:57:20.823Z,952.75
2023-03-15T07:58:22.821Z,952.81
2023-03-15T07:59:24.834Z,952.78
2023-03-15T08:00:26.840Z,952.78
2023-03-15T08:01:28.830Z,952.79
2023-03-15T08:02:30.845Z,952.8
2023-03-15T08:03:32.872Z,952.81
2023-03-15T08:04:36.553Z,952.76
2023-03-15T08:05:36.824Z,952.81
2023-03-15T08:06:38.876Z,952.8
2023-03-15T08:07:40.879Z,952.8
2023-03-15T08:08:43.859Z,952.78
2023-03-15T08:09:45.876Z,952.77
2023-03-15T08:10:47.830Z,952.76
2023-03-15T08:11:49.850Z,952.78
2023-03-15T08:12:53.840Z,952.77
2023-03-15T08:13:55.835Z,952.77
2023-03-15T08:14:57.910Z,952.79
2023-03-15T08:15:59.893Z,952.79
2023-03-15T08:17:01.846Z,952.74
2023-03-15T08:18:05.849Z,952.76
2023-03-15T08:19:05.862Z,952.77
2023-03-15T08:20:07.854Z,952.73
2023-03-15T08:21:09.849Z,952.75
2023-03-15T08:23:13.849Z,952.75
2023-03-15T08:24:15.840Z,952.77
2023-03-15T08:25:17.913Z,952.8
2023-03-15T08:26:52.112Z,952.79
2023-03-15T08:27:32.687Z,952.79
2023-03-15T08:28:26.315Z,952.79
2023-03-15T08:29:28.313Z,952.79
2023-03-15T08:30:30.327Z,952.81
2023-03-15T08:31:33.373Z,952.78
2023-03-15T08:32:35.362Z,952.79
2023-03-15T08:33:37.327Z,952.82
2023-03-15T08:34:39.321Z,952.82
2023-03-15T08:35:41.417Z,952.84
2023-03-15T08:36:43.342Z,952.87
2023-03-15T08:37:45.363Z,952.89
2023-03-15T08:40:53.307Z,952.88
2023-03-15T08:42:32.599Z,952.93
2023-03-15T08:44:18.006Z,952.86
2023-03-15T08:46:18.008Z,952.89
2023-03-15T08:47:17.981Z,952.89
2023-03-15T08:48:18.012Z,952.91
2023-03-15T08:49:18.024Z,952.89
2023-03-15T08:50:18.023Z,952.89
2023-03-15T08:51:18.931Z,952.91
2023-03-15T08:52:20.982Z,952.91
2023-03-15T08:53:22.982Z,952.92
2023-03-15T08:54:25.983Z,952.94
2023-03-15T08:55:32.627Z,952.93
2023-03-15T08:56:29.946Z,952.91
2023-03-15T08:57:31.994Z,952.93
2023-03-15T08:58:33.938Z,952.93
2023-03-15T08:59:36.047Z,952.91
2023-03-15T09:00:38.049Z,952.94
2023-03-15T09:01:39.940Z,952.97
2023-03-15T09:02:42.086Z,953
2023-03-15T09:03:44.936Z,952.98
2023-03-15T09:04:47.027Z,952.97
2023-03-15T09:05:48.936Z,952.98
2023-03-15T09:06:50.939Z,952.97
2023-03-15T09:07:53.076Z,952.97
2023-03-15T09:08:54.940Z,953.01
2023-03-15T09:09:56.942Z,953.01
2023-03-15T09:10:59.983Z,953.02
2023-03-15T09:12:02.953Z,953.09
2023-03-15T09:13:04.979Z,953.07
2023-03-15T09:15:09.025Z,953.12
2023-03-15T09:16:10.953Z,953.11
2023-03-15T09:17:13.070Z,953.12
2023-03-15T09:18:14.948Z,953.13
2023-03-15T09:19:16.954Z,953.22
2023-03-15T09:20:19.343Z,953.17
2023-03-15T09:21:21.950Z,953.15
2023-03-15T09:22:38.683Z,953.17
2023-03-15T09:23:25.956Z,953.18
2023-03-15T09:24:27.952Z,953.2
2023-03-15T09:25:29.964Z,953.19
2023-03-15T09:26:31.964Z,953.21
2023-03-15T09:27:33.980Z,953.2
2023-03-15T09:28:35.970Z,953.23
2023-03-15T09:29:37.994Z,953.24
2023-03-15T09:30:40.068Z,953.2
2023-03-15T09:32:44.039Z,953.25
2023-03-15T09:34:47.957Z,953.29
2023-03-15T09:35:50.016Z,953.29
2023-03-15T09:36:51.991Z,953.32
2023-03-15T09:38:55.966Z,953.3
2023-03-15T09:40:59.974Z,953.32
2023-03-15T09:42:06.360Z,953.31
2023-03-15T09:43:06.004Z,953.32
2023-03-15T09:44:08.985Z,953.33
2023-03-15T09:45:10.978Z,953.33
2023-03-15T09:46:13.068Z,953.36
2023-03-15T09:47:15.007Z,953.38
2023-03-15T09:48:16.985Z,953.4
2023-03-15T09:49:18.975Z,953.38
2023-03-15T09:50:21.030Z,953.37
2023-03-15T09:51:22.981Z,953.4
2023-03-15T09:52:38.729Z,953.37
2023-03-15T09:53:27.981Z,953.41
2023-03-15T09:54:29.983Z,953.41
2023-03-15T09:55:32.009Z,953.41
2023-03-15T09:56:33.986Z,953.44
2023-03-15T09:57:36.035Z,953.45
2023-03-15T09:58:38.013Z,953.46
2023-03-15T09:59:40.005Z,953.47
2023-03-15T10:00:43.040Z,953.46
2023-03-15T10:01:45.014Z,953.45
2023-03-15T10:03:49.201Z,953.44
2023-03-15T10:04:51.007Z,953.42
2023-03-15T10:05:52.994Z,953.47
2023-03-15T10:06:55.996Z,953.44
2023-03-15T10:07:58.031Z,953.44
2023-03-15T10:09:00.003Z,953.44
2023-03-15T10:10:04.015Z,953.4
2023-03-15T10:11:06.001Z,953.39
2023-03-15T10:12:07.994Z,953.41
2023-03-15T10:13:10.038Z,953.39
2023-03-15T10:14:12.015Z,953.35
2023-03-15T10:15:14.000Z,953.34
2023-03-15T10:16:16.212Z,953.36
2023-03-15T10:17:17.994Z,953.38
2023-03-15T10:18:20.004Z,953.37
2023-03-15T10:19:22.042Z,953.38
2023-03-15T10:20:24.012Z,953.38
2023-03-15T10:21:26.013Z,953.38
2023-03-15T10:22:28.001Z,953.36
2023-03-15T10:23:30.005Z,953.36
2023-03-15T10:24:32.002Z,953.36
2023-03-15T10:25:34.009Z,953.37
2023-03-15T10:26:36.055Z,953.35
2023-03-15T10:27:38.001Z,953.37
2023-03-15T10:28:40.013Z,953.39
2023-03-15T10:29:42.017Z,953.41
2023-03-15T10:30:43.993Z,953.37
2023-03-15T10:31:46.092Z,953.36
2023-03-15T10:32:48.095Z,953.38
2023-03-15T10:34:02.671Z,953.37
2023-03-15T10:34:52.019Z,953.4
2023-03-15T10:35:58.609Z,953.34
2023-03-15T10:37:08.678Z,953.37
2023-03-15T10:38:00.028Z,953.42
2023-03-15T10:39:03.026Z,953.34
2023-03-15T10:40:20.797Z,953.39
2023-03-15T10:41:28.480Z,953.38
2023-03-15T10:42:18.050Z,953.37
2023-03-15T10:43:18.068Z,953.39
2023-03-15T10:44:18.109Z,953.4
2023-03-15T10:45:18.096Z,953.38
2023-03-15T10:46:18.082Z,953.39
2023-03-15T10:47:23.122Z,953.4
2023-03-15T10:48:21.032Z,953.39
2023-03-15T10:49:23.065Z,953.42
2023-03-15T10:50:25.026Z,953.39
2023-03-15T10:51:27.021Z,953.38
2023-03-15T10:52:29.039Z,953.39
2023-03-15T10:53:31.014Z,953.39
2023-03-15T10:54:34.014Z,953.39
2023-03-15T10:55:36.023Z,953.34
2023-03-15T10:56:38.034Z,953.38
2023-03-15T10:57:40.102Z,953.37
2023-03-15T10:58:42.031Z,953.36
2023-03-15T10:59:44.014Z,953.4
2023-03-15T11:00:47.019Z,953.4
2023-03-15T11:01:49.074Z,953.4
2023-03-15T11:02:51.071Z,953.37
2023-03-15T11:03:53.022Z,953.4
2023-03-15T11:04:55.097Z,953.37
2023-03-15T11:05:57.033Z,953.37
2023-03-15T11:07:00.049Z,953.38
2023-03-15T11:08:03.056Z,953.41
2023-03-15T11:09:05.036Z,953.41
2023-03-15T11:10:07.045Z,953.4
2023-03-15T11:11:09.069Z,953.48
2023-03-15T11:12:11.035Z,953.49
2023-03-15T11:13:13.031Z,953.47
2023-03-15T11:14:15.092Z,953.49
2023-03-15T11:15:17.066Z,953.51
2023-03-15T11:16:19.236Z,953.46
2023-03-15T11:17:21.045Z,953.52
2023-03-15T11:18:23.033Z,953.45
2023-03-15T11:19:25.068Z,953.44
2023-03-15T11:20:27.030Z,953.45
2023-03-15T11:21:29.026Z,953.41
2023-03-15T11:22:31.046Z,953.39
2023-03-15T11:23:33.028Z,953.4
2023-03-15T11:24:35.080Z,953.42
2023-03-15T11:25:37.065Z,953.4
2023-03-15T11:26:39.073Z,953.41
2023-03-15T11:28:44.042Z,953.46
2023-03-15T11:29:46.031Z,953.43
2023-03-15T11:30:48.596Z,953.43
2023-03-15T11:31:50.111Z,953.42
2023-03-15T11:32:52.145Z,953.43
2023-03-15T11:33:54.041Z,953.39
2023-03-15T11:34:56.035Z,953.38
2023-03-15T11:35:58.182Z,953.38
2023-03-15T11:37:08.049Z,953.41
2023-03-15T11:38:14.557Z,953.42
2023-03-15T11:39:05.035Z,953.43
2023-03-15T11:40:11.761Z,953.39
2023-03-15T11:41:09.085Z,953.39
2023-03-15T11:42:11.317Z,953.4
2023-03-15T11:43:14.047Z,953.36
2023-03-15T11:44:16.061Z,953.37
2023-03-15T11:45:18.054Z,953.38
2023-03-15T11:46:20.046Z,953.37
2023-03-15T11:47:22.102Z,953.39
2023-03-15T11:48:25.182Z,953.34
2023-03-15T11:49:27.188Z,953.37
2023-03-15T11:50:29.183Z,953.34
2023-03-15T11:51:32.189Z,953.32
2023-03-15T11:53:18.129Z,953.34
2023-03-15T11:54:18.172Z,953.32
2023-03-15T11:55:18.106Z,953.31
2023-03-15T11:56:18.107Z,953.3
2023-03-15T11:57:44.237Z,953.3
2023-03-15T11:59:18.122Z,953.3
2023-03-15T12:00:18.377Z,953.3
2023-03-15T12:01:18.121Z,953.31
2023-03-15T12:02:18.197Z,953.31
2023-03-15T12:03:18.175Z,953.29
2023-03-15T12:04:18.118Z,953.31
2023-03-15T12:05:18.481Z,953.31
2023-03-15T12:07:05.189Z,953.29
2023-03-15T12:08:07.260Z,953.3
2023-03-15T12:09:13.747Z,953.33
2023-03-15T12:10:16.866Z,953.28
2023-03-15T12:11:18.740Z,953.28
2023-03-15T12:12:20.743Z,953.25
2023-03-15T12:13:22.824Z,953.28
2023-03-15T12:14:24.756Z,953.3
2023-03-15T12:15:26.788Z,953.24
2023-03-15T12:17:30.978Z,953.27
2023-03-15T12:18:32.773Z,953.26
2023-03-15T12:19:34.742Z,953.24
2023-03-15T12:20:37.783Z,953.24
2023-03-15T12:21:39.762Z,953.23
2023-03-15T12:23:43.808Z,953.24
2023-03-15T12:24:45.751Z,953.25
2023-03-15T12:25:54.696Z,953.24
2023-03-15T12:27:18.123Z,953.24
2023-03-15T12:28:18.126Z,953.24
2023-03-15T12:29:18.219Z,953.22
2023-03-15T12:30:18.155Z,953.26
2023-03-15T12:31:18.229Z,953.29
2023-03-15T12:32:18.136Z,953.28
2023-03-15T12:33:18.173Z,953.29
2023-03-15T12:38:18.207Z,953.3
2023-03-15T12:39:18.157Z,953.22
2023-03-15T12:40:18.237Z,953.22
2023-03-15T12:41:24.551Z,953.25
2023-03-15T12:42:38.833Z,953.24
2023-03-15T12:43:28.576Z,953.23
2023-03-15T12:44:30.564Z,953.21
2023-03-15T12:45:32.568Z,953.21
2023-03-15T12:46:35.632Z,953.24
2023-03-15T12:47:37.550Z,953.25
2023-03-15T12:48:39.546Z,953.25
2023-03-15T12:49:41.577Z,953.28
2023-03-15T12:50:43.582Z,953.3
2023-03-15T12:51:45.545Z,953.29
2023-03-15T12:53:02.820Z,953.3
2023-03-15T12:53:50.568Z,953.26
2023-03-15T12:54:52.613Z,953.34
2023-03-15T12:56:06.193Z,953.34
2023-03-15T12:56:56.563Z,953.37
2023-03-15T12:57:58.562Z,953.34
2023-03-15T12:59:00.558Z,953.35
2023-03-15T13:00:02.579Z,953.37
2023-03-15T13:01:04.585Z,953.34
2023-03-15T13:02:07.044Z,953.32
2023-03-15T13:03:08.788Z,953.33
2023-03-15T13:04:10.586Z,953.36
2023-03-15T13:05:12.621Z,953.36
2023-03-15T13:06:14.590Z,953.34
2023-03-15T13:07:17.612Z,953.34
2023-03-15T13:08:19.631Z,953.31
2023-03-15T13:10:23.568Z,953.33
2023-03-15T13:11:25.569Z,953.32
2023-03-15T13:12:27.579Z,953.35
2023-03-15T13:13:29.638Z,953.4
2023-03-15T13:14:32.565Z,953.38
2023-03-15T13:15:34.644Z,953.43
2023-03-15T13:16:36.583Z,953.36
2023-03-15T13:17:38.809Z,953.41
2023-03-15T13:18:40.645Z,953.38
2023-03-15T13:19:42.638Z,953.39
2023-03-15T13:20:44.587Z,953.45
2023-03-15T13:21:46.604Z,953.45
2023-03-15T13:22:55.412Z,953.47
2023-03-15T13:23:50.577Z,953.43
2023-03-15T13:24:52.596Z,953.43
2023-03-15T13:25:54.602Z,953.47
2023-03-15T13:26:56.585Z,953.44
2023-03-15T13:27:58.592Z,953.46
2023-03-15T13:29:00.588Z,953.56
2023-03-15T13:30:02.606Z,953.51
2023-03-15T13:31:04.625Z,953.51
2023-03-15T13:32:06.636Z,953.5
2023-03-15T13:33:08.583Z,953.46
2023-03-15T13:34:10.596Z,953.5
2023-03-15T13:35:12.596Z,953.47
2023-03-15T13:36:14.602Z,953.46
2023-03-15T13:37:18.605Z,953.46
2023-03-15T13:38:20.634Z,953.44
2023-03-15T13:39:22.601Z,953.41
2023-03-15T13:40:24.603Z,953.41
2023-03-15T13:41:26.587Z,953.42
2023-03-15T13:42:28.600Z,953.43
2023-03-15T13:43:30.633Z,953.46